sensor_id;sensor_type;location;lat;lon;timestamp;pressure;altitude;pressure_sealevel;temperature;humidity
62833;BME280;48891;49.220;6.920;2024-01-30T00:01:16;100299.19;;;14.86;56.83
62833;BME280;48891;49.220;6.920;2024-01-30T00:03:41;100286.22;;;14.79;56.76
62833;BME280;48891;49.220;6.920;2024-01-30T00:06:07;100269.03;;;14.69;57.18
62833;BME280;48891;49.220;6.920;2024-01-30T00:08:33;100294.75;;;14.86;56.72
62833;BME280;48891;49.220;6.920;2024-01-30T00:10:59;100280.13;;;14.77;57.11
62833;BME280;48891;49.220;6.920;2024-01-30T00:13:24;100292.09;;;14.86;56.81
62833;BME280;48891;49.220;6.920;2024-01-30T00:15:49;100285.91;;;14.86;57.31
62833;BME280;48891;49.220;6.920;2024-01-30T00:18:14;100289.56;;;14.83;56.60
62833;BME280;48891;49.220;6.920;2024-01-30T00:20:40;100296.53;;;14.86;56.84
62833;BME280;48891;49.220;6.920;2024-01-30T00:23:05;100285.91;;;14.86;56.81
62833;BME280;48891;49.220;6.920;2024-01-30T00:25:31;100282.38;;;14.85;57.09
62833;BME280;48891;49.220;6.920;2024-01-30T00:27:56;100282.38;;;14.85;57.08
62833;BME280;48891;49.220;6.920;2024-01-30T00:30:21;100285.91;;;14.86;57.26
62833;BME280;48891;49.220;6.920;2024-01-30T00:32:46;100281.47;;;14.86;56.87
62833;BME280;48891;49.220;6.920;2024-01-30T00:35:12;100282.31;;;14.87;56.88
62833;BME280;48891;49.220;6.920;2024-01-30T00:37:37;100279.72;;;14.85;56.97
62833;BME280;48891;49.220;6.920;2024-01-30T00:40:03;100285.03;;;14.85;56.68
62833;BME280;48891;49.220;6.920;2024-01-30T00:42:28;100278.88;;;14.85;57.03
62833;BME280;48891;49.220;6.920;2024-01-30T00:44:53;100280.63;;;14.86;56.59
62833;BME280;48891;49.220;6.920;2024-01-30T00:47:19;100279.91;;;14.82;56.20
62833;BME280;48891;49.220;6.920;2024-01-30T00:49:44;100282.47;;;14.84;56.62
62833;BME280;48891;49.220;6.920;2024-01-30T00:52:09;100260.84;;;14.74;56.95
62833;BME280;48891;49.220;6.920;2024-01-30T00:54:34;100285.13;;;14.84;56.83
62833;BME280;48891;49.220;6.920;2024-01-30T00:56:59;100288.66;;;14.84;56.79
62833;BME280;48891;49.220;6.920;2024-01-30T00:59:25;100284.19;;;14.85;56.84
62833;BME280;48891;49.220;6.920;2024-01-30T01:01:50;100283.41;;;14.83;57.08
62833;BME280;48891;49.220;6.920;2024-01-30T01:04:16;100283.41;;;14.83;56.58
62833;BME280;48891;49.220;6.920;2024-01-30T01:06:41;100283.41;;;14.83;56.89
62833;BME280;48891;49.220;6.920;2024-01-30T01:09:06;100275.75;;;14.76;56.40
62833;BME280;48891;49.220;6.920;2024-01-30T01:11:31;100285.28;;;14.80;56.54
62833;BME280;48891;49.220;6.920;2024-01-30T01:13:57;100280.97;;;14.78;56.39
62833;BME280;48891;49.220;6.920;2024-01-30T01:16:22;100287.06;;;14.80;57.03
62833;BME280;48891;49.220;6.920;2024-01-30T01:18:47;100287.06;;;14.80;56.45
62833;BME280;48891;49.220;6.920;2024-01-30T01:21:12;100268.31;;;14.66;56.97
62833;BME280;48891;49.220;6.920;2024-01-30T01:23:38;100291.53;;;14.79;56.45
62833;BME280;48891;49.220;6.920;2024-01-30T01:26:03;100284.50;;;14.78;56.64
62833;BME280;48891;49.220;6.920;2024-01-30T01:28:28;100295.03;;;14.80;56.44
62833;BME280;48891;49.220;6.920;2024-01-30T01:30:54;100292.47;;;14.78;56.77
62833;BME280;48891;49.220;6.920;2024-01-30T01:33:19;100280.97;;;14.78;56.91
62833;BME280;48891;49.220;6.920;2024-01-30T01:35:44;100288.88;;;14.79;56.34
62833;BME280;48891;49.220;6.920;2024-01-30T01:38:10;100289.72;;;14.80;56.54
62833;BME280;48891;49.220;6.920;2024-01-30T01:40:35;100289.81;;;14.78;56.42
62833;BME280;48891;49.220;6.920;2024-01-30T01:43:03;100285.38;;;14.79;56.26
62833;BME280;48891;49.220;6.920;2024-01-30T01:45:28;100277.53;;;14.76;56.56
62833;BME280;48891;49.220;6.920;2024-01-30T01:47:53;100279.41;;;14.74;56.36
62833;BME280;48891;49.220;6.920;2024-01-30T01:50:20;100278.41;;;14.76;56.67
62833;BME280;48891;49.220;6.920;2024-01-30T01:52:49;100280.19;;;14.76;56.30
62833;BME280;48891;49.220;6.920;2024-01-30T01:55:16;100281.13;;;14.75;56.13
62833;BME280;48891;49.220;6.920;2024-01-30T01:57:41;100278.41;;;14.76;56.24
62833;BME280;48891;49.220;6.920;2024-01-30T02:00:08;100281.13;;;14.75;56.72
62833;BME280;48891;49.220;6.920;2024-01-30T02:02:35;100276.63;;;14.77;56.54
62833;BME280;48891;49.220;6.920;2024-01-30T02:05:01;100281.06;;;14.76;56.46
62833;BME280;48891;49.220;6.920;2024-01-30T02:07:27;100282.00;;;14.75;56.54
62833;BME280;48891;49.220;6.920;2024-01-30T02:09:53;100275.03;;;14.73;56.40
62833;BME280;48891;49.220;6.920;2024-01-30T02:12:18;100274.13;;;14.74;56.43
62833;BME280;48891;49.220;6.920;2024-01-30T02:14:47;100270.50;;;14.75;56.00
62833;BME280;48891;49.220;6.920;2024-01-30T02:17:13;100267.97;;;14.73;56.38
62833;BME280;48891;49.220;6.920;2024-01-30T02:19:39;100259.88;;;14.75;56.24
62833;BME280;48891;49.220;6.920;2024-01-30T02:22:05;100267.16;;;14.71;56.36
62833;BME280;48891;49.220;6.920;2024-01-30T02:24:30;100266.22;;;14.72;56.15
62833;BME280;48891;49.220;6.920;2024-01-30T02:26:56;100264.50;;;14.71;56.22
62833;BME280;48891;49.220;6.920;2024-01-30T02:29:21;100250.06;;;14.59;56.47
62833;BME280;48891;49.220;6.920;2024-01-30T02:31:46;100268.03;;;14.72;56.08
62833;BME280;48891;49.220;6.920;2024-01-30T02:34:11;100248.19;;;14.61;56.23
62833;BME280;48891;49.220;6.920;2024-01-30T02:36:37;100269.91;;;14.70;56.36
62833;BME280;48891;49.220;6.920;2024-01-30T02:39:03;100267.31;;;14.68;56.16
62833;BME280;48891;49.220;6.920;2024-01-30T02:41:28;100263.72;;;14.69;56.07
62833;BME280;48891;49.220;6.920;2024-01-30T02:43:53;100261.06;;;14.69;56.41
62833;BME280;48891;49.220;6.920;2024-01-30T02:46:18;100264.59;;;14.70;56.39
62833;BME280;48891;49.220;6.920;2024-01-30T02:48:44;100255.13;;;14.64;56.29
62833;BME280;48891;49.220;6.920;2024-01-30T02:51:09;100268.09;;;14.70;56.56
62833;BME280;48891;49.220;6.920;2024-01-30T02:53:34;100271.69;;;14.69;56.16
62833;BME280;48891;49.220;6.920;2024-01-30T02:56:00;100267.31;;;14.68;55.90
62833;BME280;48891;49.220;6.920;2024-01-30T02:58:26;100265.44;;;14.70;56.37
62833;BME280;48891;49.220;6.920;2024-01-30T03:00:51;100257.00;;;14.62;55.96
62833;BME280;48891;49.220;6.920;2024-01-30T03:03:16;100272.63;;;14.68;56.01
62833;BME280;48891;49.220;6.920;2024-01-30T03:05:41;100252.56;;;14.63;56.29
62833;BME280;48891;49.220;6.920;2024-01-30T03:08:07;100260.59;;;14.61;55.96
62833;BME280;48891;49.220;6.920;2024-01-30T03:10:32;100247.53;;;14.56;56.06
62833;BME280;48891;49.220;6.920;2024-01-30T03:12:57;100262.94;;;14.67;55.97
62833;BME280;48891;49.220;6.920;2024-01-30T03:15:22;100266.44;;;14.68;56.32
62833;BME280;48891;49.220;6.920;2024-01-30T03:17:47;100265.59;;;14.67;56.39
62833;BME280;48891;49.220;6.920;2024-01-30T03:20:13;100251.75;;;14.60;56.25
62833;BME280;48891;49.220;6.920;2024-01-30T03:22:38;100257.06;;;14.60;55.94
62833;BME280;48891;49.220;6.920;2024-01-30T03:25:04;100256.06;;;14.63;56.11
62833;BME280;48891;49.220;6.920;2024-01-30T03:27:29;100255.13;;;14.64;56.17
62833;BME280;48891;49.220;6.920;2024-01-30T03:29:54;100260.34;;;14.66;55.88
62833;BME280;48891;49.220;6.920;2024-01-30T03:32:19;100256.00;;;14.65;56.14
62833;BME280;48891;49.220;6.920;2024-01-30T03:34:45;100256.84;;;14.65;56.21
62833;BME280;48891;49.220;6.920;2024-01-30T03:37:10;100259.59;;;14.64;55.78
62833;BME280;48891;49.220;6.920;2024-01-30T03:39:35;100264.88;;;14.64;56.06
62833;BME280;48891;49.220;6.920;2024-01-30T03:42:00;100268.50;;;14.63;55.79
62833;BME280;48891;49.220;6.920;2024-01-30T03:44:26;100251.97;;;14.56;55.88
62833;BME280;48891;49.220;6.920;2024-01-30T03:46:51;100263.19;;;14.63;56.01
62833;BME280;48891;49.220;6.920;2024-01-30T03:49:16;100268.56;;;14.61;56.05
62833;BME280;48891;49.220;6.920;2024-01-30T03:51:41;100268.50;;;14.63;55.91
62833;BME280;48891;49.220;6.920;2024-01-30T03:54:07;100266.00;;;14.59;55.86
62833;BME280;48891;49.220;6.920;2024-01-30T03:56:32;100270.34;;;14.60;55.92
62833;BME280;48891;49.220;6.920;2024-01-30T03:58:57;100274.78;;;14.60;56.21
62833;BME280;48891;49.220;6.920;2024-01-30T04:01:22;100267.69;;;14.60;56.26
62833;BME280;48891;49.220;6.920;2024-01-30T04:03:48;100264.25;;;14.58;55.97
62833;BME280;48891;49.220;6.920;2024-01-30T04:06:13;100269.41;;;14.61;56.01
62833;BME280;48891;49.220;6.920;2024-01-30T04:08:38;100255.69;;;14.52;55.91
62833;BME280;48891;49.220;6.920;2024-01-30T04:11:04;100258.03;;;14.59;56.01
62833;BME280;48891;49.220;6.920;2024-01-30T04:13:30;100262.59;;;14.56;56.15
62833;BME280;48891;49.220;6.920;2024-01-30T04:15:55;100270.44;;;14.59;55.95
62833;BME280;48891;49.220;6.920;2024-01-30T04:18:20;100265.13;;;14.59;55.72
62833;BME280;48891;49.220;6.920;2024-01-30T04:20:45;100267.78;;;14.59;55.93
62833;BME280;48891;49.220;6.920;2024-01-30T04:23:10;100264.28;;;14.57;55.97
62833;BME280;48891;49.220;6.920;2024-01-30T04:25:36;100259.88;;;14.57;56.11
62833;BME280;48891;49.220;6.920;2024-01-30T04:28:01;100257.94;;;14.61;56.15
62833;BME280;48891;49.220;6.920;2024-01-30T04:30:26;100250.41;;;14.52;56.01
62833;BME280;48891;49.220;6.920;2024-01-30T04:32:51;100262.53;;;14.57;56.33
62833;BME280;48891;49.220;6.920;2024-01-30T04:35:17;100266.06;;;14.58;55.97
62833;BME280;48891;49.220;6.920;2024-01-30T04:37:42;100268.72;;;14.58;56.02
62833;BME280;48891;49.220;6.920;2024-01-30T04:40:07;100268.75;;;14.56;56.02
62833;BME280;48891;49.220;6.920;2024-01-30T04:42:33;100264.63;;;14.51;55.87
62833;BME280;48891;49.220;6.920;2024-01-30T04:44:58;100278.53;;;14.56;55.73
62833;BME280;48891;49.220;6.920;2024-01-30T04:47:23;100279.38;;;14.56;55.69
62833;BME280;48891;49.220;6.920;2024-01-30T04:49:48;100286.56;;;14.54;55.91
62833;BME280;48891;49.220;6.920;2024-01-30T04:52:14;100284.75;;;14.55;56.03
62833;BME280;48891;49.220;6.920;2024-01-30T04:54:39;100282.09;;;14.55;55.87
62833;BME280;48891;49.220;6.920;2024-01-30T04:57:04;100285.59;;;14.55;55.78
62833;BME280;48891;49.220;6.920;2024-01-30T04:59:30;100284.75;;;14.55;55.67
62833;BME280;48891;49.220;6.920;2024-01-30T05:01:55;100283.75;;;14.57;55.76
62833;BME280;48891;49.220;6.920;2024-01-30T05:04:20;100289.19;;;14.54;55.84
62833;BME280;48891;49.220;6.920;2024-01-30T05:06:46;100273.50;;;14.50;56.04
62833;BME280;48891;49.220;6.920;2024-01-30T05:09:11;100286.63;;;14.53;55.64
62833;BME280;48891;49.220;6.920;2024-01-30T05:11:37;100270.69;;;14.53;55.88
62833;BME280;48891;49.220;6.920;2024-01-30T05:14:02;100264.13;;;14.42;55.92
62833;BME280;48891;49.220;6.920;2024-01-30T05:16:27;100265.94;;;14.42;55.84
62833;BME280;48891;49.220;6.920;2024-01-30T05:18:53;100278.97;;;14.47;55.59
62833;BME280;48891;49.220;6.920;2024-01-30T05:21:18;100289.41;;;14.50;55.86
62833;BME280;48891;49.220;6.920;2024-01-30T05:23:43;100291.06;;;14.52;55.90
62833;BME280;48891;49.220;6.920;2024-01-30T05:26:08;100285.84;;;14.51;55.52
62833;BME280;48891;49.220;6.920;2024-01-30T05:28:34;100286.69;;;14.51;55.62
62833;BME280;48891;49.220;6.920;2024-01-30T05:30:59;100285.13;;;14.47;55.85
62833;BME280;48891;49.220;6.920;2024-01-30T05:33:24;100291.22;;;14.49;56.12
62833;BME280;48891;49.220;6.920;2024-01-30T05:35:50;100288.56;;;14.49;55.85
62833;BME280;48891;49.220;6.920;2024-01-30T05:38:16;100287.72;;;14.49;55.86
62833;BME280;48891;49.220;6.920;2024-01-30T05:40:41;100294.78;;;14.48;55.75
62833;BME280;48891;49.220;6.920;2024-01-30T05:43:06;100266.44;;;14.31;55.93
62833;BME280;48891;49.220;6.920;2024-01-30T05:45:32;100291.28;;;14.48;55.70
62833;BME280;48891;49.220;6.920;2024-01-30T05:47:57;100287.78;;;14.47;56.00
62833;BME280;48891;49.220;6.920;2024-01-30T05:50:22;100299.25;;;14.48;55.78
62833;BME280;48891;49.220;6.920;2024-01-30T05:52:47;100296.59;;;14.48;55.77
62833;BME280;48891;49.220;6.920;2024-01-30T05:55:13;100296.66;;;14.46;55.74
62833;BME280;48891;49.220;6.920;2024-01-30T05:57:38;100293.16;;;14.46;55.80
62833;BME280;48891;49.220;6.920;2024-01-30T06:00:07;100294.00;;;14.46;55.91
62833;BME280;48891;49.220;6.920;2024-01-30T06:02:32;100304.63;;;14.46;56.02
62833;BME280;48891;49.220;6.920;2024-01-30T06:04:58;100300.19;;;14.47;55.86
62833;BME280;48891;49.220;6.920;2024-01-30T06:07:23;100293.22;;;14.44;55.91
62833;BME280;48891;49.220;6.920;2024-01-30T06:09:48;100297.63;;;14.45;56.64
62833;BME280;48891;49.220;6.920;2024-01-30T06:12:13;100291.44;;;14.44;56.98
62833;BME280;48891;49.220;6.920;2024-01-30T06:14:39;100292.38;;;14.43;56.62
62833;BME280;48891;49.220;6.920;2024-01-30T06:17:04;100275.91;;;14.37;56.87
62833;BME280;48891;49.220;6.920;2024-01-30T06:19:29;100290.31;;;14.50;57.16
62833;BME280;48891;49.220;6.920;2024-01-30T06:21:55;100290.66;;;14.61;56.81
62833;BME280;48891;49.220;6.920;2024-01-30T06:24:20;100281.22;;;14.73;56.51
62833;BME280;48891;49.220;6.920;2024-01-30T06:26:45;100282.16;;;14.90;56.47
62833;BME280;48891;49.220;6.920;2024-01-30T06:29:10;100265.75;;;14.99;56.14
62833;BME280;48891;49.220;6.920;2024-01-30T06:31:42;100284.19;;;15.19;56.56
62833;BME280;48891;49.220;6.920;2024-01-30T06:34:08;100268.06;;;15.23;56.64
62833;BME280;48891;49.220;6.920;2024-01-30T06:36:33;100279.38;;;15.44;56.11
62833;BME280;48891;49.220;6.920;2024-01-30T06:38:59;100282.25;;;15.56;55.85
62833;BME280;48891;49.220;6.920;2024-01-30T06:41:24;100278.25;;;15.65;55.90
62833;BME280;48891;49.220;6.920;2024-01-30T06:43:50;100278.63;;;15.75;55.68
62833;BME280;48891;49.220;6.920;2024-01-30T06:46:15;100286.09;;;15.84;55.87
62833;BME280;48891;49.220;6.920;2024-01-30T06:48:40;100284.81;;;15.91;55.66
62833;BME280;48891;49.220;6.920;2024-01-30T06:51:06;100281.66;;;16.01;56.03
62833;BME280;48891;49.220;6.920;2024-01-30T06:53:31;100289.13;;;16.10;56.42
62833;BME280;48891;49.220;6.920;2024-01-30T06:55:56;100285.16;;;16.17;57.09
62833;BME280;48891;49.220;6.920;2024-01-30T06:58:21;100283.13;;;16.22;56.30
62833;BME280;48891;49.220;6.920;2024-01-30T07:00:47;100283.72;;;16.27;56.44
62833;BME280;48891;49.220;6.920;2024-01-30T07:03:12;100296.06;;;16.28;55.93
62833;BME280;48891;49.220;6.920;2024-01-30T07:05:37;100298.63;;;16.30;55.65
62833;BME280;48891;49.220;6.920;2024-01-30T07:08:03;100307.47;;;16.30;55.75
62833;BME280;48891;49.220;6.920;2024-01-30T07:10:28;100309.28;;;16.30;56.00
62833;BME280;48891;49.220;6.920;2024-01-30T07:12:53;100297.44;;;16.20;55.53
62833;BME280;48891;49.220;6.920;2024-01-30T07:15:18;100313.06;;;16.26;55.58
62833;BME280;48891;49.220;6.920;2024-01-30T07:17:44;100310.50;;;16.24;55.59
62833;BME280;48891;49.220;6.920;2024-01-30T07:20:09;100312.63;;;16.18;55.71
62833;BME280;48891;49.220;6.920;2024-01-30T07:22:34;100303.78;;;16.17;56.12
62833;BME280;48891;49.220;6.920;2024-01-30T07:25:00;100304.91;;;16.13;55.96
62833;BME280;48891;49.220;6.920;2024-01-30T07:27:25;100308.50;;;16.12;56.23
62833;BME280;48891;49.220;6.920;2024-01-30T07:29:50;100308.66;;;16.09;55.90
62833;BME280;48891;49.220;6.920;2024-01-30T07:32:16;100303.88;;;16.00;56.07
62833;BME280;48891;49.220;6.920;2024-01-30T07:34:41;100315.19;;;16.03;55.91
62833;BME280;48891;49.220;6.920;2024-01-30T07:37:06;100307.22;;;16.03;56.16
62833;BME280;48891;49.220;6.920;2024-01-30T07:39:31;100313.06;;;16.10;56.34
62833;BME280;48891;49.220;6.920;2024-01-30T07:41:57;100311.84;;;16.16;56.16
62833;BME280;48891;49.220;6.920;2024-01-30T07:44:22;100322.75;;;16.27;55.71
62833;BME280;48891;49.220;6.920;2024-01-30T07:46:47;100320.59;;;16.33;55.64
62833;BME280;48891;49.220;6.920;2024-01-30T07:49:12;100323.78;;;16.40;55.57
62833;BME280;48891;49.220;6.920;2024-01-30T07:51:38;100303.78;;;16.33;55.32
62833;BME280;48891;49.220;6.920;2024-01-30T07:54:03;100326.00;;;16.48;55.49
62833;BME280;48891;49.220;6.920;2024-01-30T07:56:28;100322.50;;;16.47;55.34
62833;BME280;48891;49.220;6.920;2024-01-30T07:58:53;100335.72;;;16.49;55.08
62833;BME280;48891;49.220;6.920;2024-01-30T08:01:19;100327.91;;;16.46;55.35
62833;BME280;48891;49.220;6.920;2024-01-30T08:03:44;100334.16;;;16.45;55.30
62833;BME280;48891;49.220;6.920;2024-01-30T08:06:09;100338.63;;;16.44;55.02
62833;BME280;48891;49.220;6.920;2024-01-30T08:08:35;100340.44;;;16.44;55.02
62833;BME280;48891;49.220;6.920;2024-01-30T08:11:00;100346.00;;;16.39;55.07
62833;BME280;48891;49.220;6.920;2024-01-30T08:13:25;100345.25;;;16.37;54.99
62833;BME280;48891;49.220;6.920;2024-01-30T08:15:51;100349.81;;;16.35;55.29
62833;BME280;48891;49.220;6.920;2024-01-30T08:18:16;100341.03;;;16.33;55.52
62833;BME280;48891;49.220;6.920;2024-01-30T08:20:41;100344.13;;;16.25;55.69
62833;BME280;48891;49.220;6.920;2024-01-30T08:23:07;100352.91;;;16.27;55.69
62833;BME280;48891;49.220;6.920;2024-01-30T08:25:32;100346.09;;;16.22;55.75
62833;BME280;48891;49.220;6.920;2024-01-30T08:27:58;100347.66;;;16.26;55.50
62833;BME280;48891;49.220;6.920;2024-01-30T08:30:23;100339.91;;;16.21;56.03
62833;BME280;48891;49.220;6.920;2024-01-30T08:32:48;100342.66;;;16.20;56.29
62833;BME280;48891;49.220;6.920;2024-01-30T08:35:13;100341.72;;;16.21;55.85
62833;BME280;48891;49.220;6.920;2024-01-30T08:37:39;100328.94;;;16.11;56.21
62833;BME280;48891;49.220;6.920;2024-01-30T08:40:05;100322.81;;;16.09;56.64
62833;BME280;48891;49.220;6.920;2024-01-30T08:42:30;100348.06;;;16.18;56.87
62833;BME280;48891;49.220;6.920;2024-01-30T08:44:56;100342.94;;;16.15;56.75
62833;BME280;48891;49.220;6.920;2024-01-30T08:47:21;100339.66;;;16.10;56.88
62833;BME280;48891;49.220;6.920;2024-01-30T08:49:46;100344.81;;;16.13;57.16
62833;BME280;48891;49.220;6.920;2024-01-30T08:52:11;100341.38;;;16.11;57.25
62833;BME280;48891;49.220;6.920;2024-01-30T08:54:37;100333.47;;;16.09;57.07
62833;BME280;48891;49.220;6.920;2024-01-30T08:57:02;100340.66;;;16.07;57.12
62833;BME280;48891;49.220;6.920;2024-01-30T08:59:27;100349.53;;;16.08;57.35
62833;BME280;48891;49.220;6.920;2024-01-30T09:01:52;100352.97;;;16.10;57.10
62833;BME280;48891;49.220;6.920;2024-01-30T09:04:18;100351.22;;;16.09;57.33
62833;BME280;48891;49.220;6.920;2024-01-30T09:06:43;100341.44;;;16.09;57.00
62833;BME280;48891;49.220;6.920;2024-01-30T09:09:08;100349.00;;;16.01;56.97
62833;BME280;48891;49.220;6.920;2024-01-30T09:11:35;100347.97;;;16.04;56.87
62833;BME280;48891;49.220;6.920;2024-01-30T09:14:00;100356.13;;;16.01;57.23
62833;BME280;48891;49.220;6.920;2024-01-30T09:16:25;100353.34;;;16.02;57.02
62833;BME280;48891;49.220;6.920;2024-01-30T09:18:51;100353.47;;;16.01;57.08
62833;BME280;48891;49.220;6.920;2024-01-30T09:21:16;100350.81;;;16.01;57.54
62833;BME280;48891;49.220;6.920;2024-01-30T09:23:41;100351.28;;;15.91;57.65
62833;BME280;48891;49.220;6.920;2024-01-30T09:26:06;100359.03;;;15.96;57.81
62833;BME280;48891;49.220;6.920;2024-01-30T09:28:32;100361.75;;;15.94;58.23
62833;BME280;48891;49.220;6.920;2024-01-30T09:30:57;100371.47;;;15.96;58.33
62833;BME280;48891;49.220;6.920;2024-01-30T09:33:22;100379.47;;;15.96;58.76
62833;BME280;48891;49.220;6.920;2024-01-30T09:35:47;100378.66;;;15.93;59.07
62833;BME280;48891;49.220;6.920;2024-01-30T09:38:13;100370.25;;;15.85;58.71
62833;BME280;48891;49.220;6.920;2024-01-30T09:40:38;100380.72;;;15.88;58.98
62833;BME280;48891;49.220;6.920;2024-01-30T09:43:03;100384.25;;;15.89;59.07
62833;BME280;48891;49.220;6.920;2024-01-30T09:45:29;100384.25;;;15.89;59.23
62833;BME280;48891;49.220;6.920;2024-01-30T09:47:55;100395.66;;;15.91;59.17
62833;BME280;48891;49.220;6.920;2024-01-30T09:50:21;100383.69;;;15.82;59.25
62833;BME280;48891;49.220;6.920;2024-01-30T09:52:47;100402.09;;;15.87;59.51
62833;BME280;48891;49.220;6.920;2024-01-30T09:55:13;100408.16;;;15.89;59.61
62833;BME280;48891;49.220;6.920;2024-01-30T09:57:39;100406.50;;;15.86;59.97
62833;BME280;48891;49.220;6.920;2024-01-30T10:00:06;100391.94;;;15.78;60.23
62833;BME280;48891;49.220;6.920;2024-01-30T10:02:31;100403.84;;;15.86;60.97
62833;BME280;48891;49.220;6.920;2024-01-30T10:04:57;100391.75;;;15.81;60.78
62833;BME280;48891;49.220;6.920;2024-01-30T10:07:22;100401.13;;;15.88;60.81
62833;BME280;48891;49.220;6.920;2024-01-30T10:09:48;100400.19;;;15.89;60.86
62833;BME280;48891;49.220;6.920;2024-01-30T10:12:13;100404.66;;;15.88;60.47
62833;BME280;48891;49.220;6.920;2024-01-30T10:14:39;100398.47;;;15.88;60.41
62833;BME280;48891;49.220;6.920;2024-01-30T10:17:04;100392.06;;;15.92;60.70
62833;BME280;48891;49.220;6.920;2024-01-30T10:19:29;100396.50;;;15.91;60.70
62833;BME280;48891;49.220;6.920;2024-01-30T10:21:54;100393.91;;;15.90;61.46
62833;BME280;48891;49.220;6.920;2024-01-30T10:24:24;100392.13;;;15.90;61.17
62833;BME280;48891;49.220;6.920;2024-01-30T10:26:50;100396.50;;;15.91;60.66
62833;BME280;48891;49.220;6.920;2024-01-30T10:29:16;100400.97;;;15.91;60.87
62833;BME280;48891;49.220;6.920;2024-01-30T10:31:42;100402.59;;;15.93;60.91
62833;BME280;48891;49.220;6.920;2024-01-30T10:34:07;100404.31;;;15.94;60.89
62833;BME280;48891;49.220;6.920;2024-01-30T10:36:36;100404.41;;;15.93;60.50
62833;BME280;48891;49.220;6.920;2024-01-30T10:39:05;100399.06;;;15.93;60.46
62833;BME280;48891;49.220;6.920;2024-01-30T10:41:39;100398.31;;;15.91;60.63
62833;BME280;48891;49.220;6.920;2024-01-30T10:44:11;100410.34;;;15.98;60.12
62833;BME280;48891;49.220;6.920;2024-01-30T10:46:42;100401.34;;;16.01;60.64
62833;BME280;48891;49.220;6.920;2024-01-30T10:49:09;100397.72;;;16.02;60.22
62833;BME280;48891;49.220;6.920;2024-01-30T10:51:36;100395.00;;;16.03;60.11
62833;BME280;48891;49.220;6.920;2024-01-30T10:54:03;100399.28;;;16.06;60.37
62833;BME280;48891;49.220;6.920;2024-01-30T10:56:29;100397.56;;;16.05;60.34
62833;BME280;48891;49.220;6.920;2024-01-30T10:58:54;100397.50;;;16.06;60.25
62833;BME280;48891;49.220;6.920;2024-01-30T11:01:21;100392.09;;;16.08;60.33
62833;BME280;48891;49.220;6.920;2024-01-30T11:03:47;100387.72;;;16.07;59.87
62833;BME280;48891;49.220;6.920;2024-01-30T11:06:12;100390.13;;;16.11;59.93
62833;BME280;48891;49.220;6.920;2024-01-30T11:08:39;100386.50;;;16.12;60.08
62833;BME280;48891;49.220;6.920;2024-01-30T11:11:09;100394.50;;;16.12;59.86
62833;BME280;48891;49.220;6.920;2024-01-30T11:13:34;100396.16;;;16.15;59.57
62833;BME280;48891;49.220;6.920;2024-01-30T11:16:01;100402.38;;;16.14;59.73
62833;BME280;48891;49.220;6.920;2024-01-30T11:18:29;100395.94;;;16.18;59.46
62833;BME280;48891;49.220;6.920;2024-01-30T11:20:59;100404.91;;;16.17;59.43
62833;BME280;48891;49.220;6.920;2024-01-30T11:23:25;100395.19;;;16.16;59.03
62833;BME280;48891;49.220;6.920;2024-01-30T11:25:55;100400.34;;;16.19;58.88
62833;BME280;48891;49.220;6.920;2024-01-30T11:28:21;100401.28;;;16.18;58.94
62833;BME280;48891;49.220;6.920;2024-01-30T11:30:47;100394.25;;;16.17;59.19
62833;BME280;48891;49.220;6.920;2024-01-30T11:33:14;100388.41;;;16.10;58.62
62833;BME280;48891;49.220;6.920;2024-01-30T11:35:40;100387.38;;;16.13;58.69
62833;BME280;48891;49.220;6.920;2024-01-30T11:38:07;100399.41;;;16.20;58.58
62833;BME280;48891;49.220;6.920;2024-01-30T11:40:34;100385.50;;;16.15;58.58
62833;BME280;48891;49.220;6.920;2024-01-30T11:43:01;100385.22;;;16.20;58.90
62833;BME280;48891;49.220;6.920;2024-01-30T11:45:27;100384.38;;;16.19;58.59
62833;BME280;48891;49.220;6.920;2024-01-30T11:47:53;100389.53;;;16.22;58.54
62833;BME280;48891;49.220;6.920;2024-01-30T11:50:18;100373.97;;;16.14;58.52
62833;BME280;48891;49.220;6.920;2024-01-30T11:52:44;100387.03;;;16.19;58.61
62833;BME280;48891;49.220;6.920;2024-01-30T11:55:10;100380.25;;;16.13;58.51
62833;BME280;48891;49.220;6.920;2024-01-30T11:57:35;100388.25;;;16.13;58.36
62833;BME280;48891;49.220;6.920;2024-01-30T12:00:01;100369.25;;;16.04;58.62
62833;BME280;48891;49.220;6.920;2024-01-30T12:02:26;100376.03;;;16.09;58.78
62833;BME280;48891;49.220;6.920;2024-01-30T12:04:52;100371.66;;;16.08;58.78
62833;BME280;48891;49.220;6.920;2024-01-30T12:07:17;100371.81;;;16.05;58.41
62833;BME280;48891;49.220;6.920;2024-01-30T12:09:51;100377.75;;;16.10;58.62
62833;BME280;48891;49.220;6.920;2024-01-30T12:12:16;100367.97;;;16.11;58.61
62833;BME280;48891;49.220;6.920;2024-01-30T12:14:42;100368.16;;;16.08;58.35
62833;BME280;48891;49.220;6.920;2024-01-30T12:17:07;100359.22;;;16.09;58.38
62833;BME280;48891;49.220;6.920;2024-01-30T12:19:32;100361.88;;;16.09;58.34
62833;BME280;48891;49.220;6.920;2024-01-30T12:21:57;100353.03;;;16.08;58.29
62833;BME280;48891;49.220;6.920;2024-01-30T12:24:23;100337.06;;;15.92;58.49
62833;BME280;48891;49.220;6.920;2024-01-30T12:26:48;100352.28;;;16.06;58.68
62833;BME280;48891;49.220;6.920;2024-01-30T12:29:14;100355.88;;;16.05;58.57
62833;BME280;48891;49.220;6.920;2024-01-30T12:31:42;100350.53;;;16.05;58.33
62833;BME280;48891;49.220;6.920;2024-01-30T12:34:07;100347.19;;;16.02;58.48
62833;BME280;48891;49.220;6.920;2024-01-30T12:36:33;100342.16;;;15.97;58.52
62833;BME280;48891;49.220;6.920;2024-01-30T12:38:59;100340.34;;;15.98;58.55
62833;BME280;48891;49.220;6.920;2024-01-30T12:41:25;100346.56;;;15.97;58.61